Portada
METAR-TAF:

METAR-TAF

Aeroports :

Chariton Municipal Airport

Chariton, Iowa, Estats Units d'Amèrica

latitud: 41-02N, longitud: 093-22W, altitud: 320 m

Observació

L'informe es va fer fa 41 minuts, a les 18:35 UTC
Vent 16 kt del Sud/Sud-Oest
Temperatura 32°C
Humitat 56%
Pressió 1010 hPa
Escasses núvols a una alçada de 4500 ft
Escasses núvols a una alçada de 6000 ft

METAR: KCNC 171835Z AUTO 20016KT FEW045 FEW060 32/22 A2982 RMK AO2

Hora: 14:16 (19:16 UTC)


TAF: manca

Observacions i pronòstics meteorològics de més de 4000 aeroports (METAR i TAF).

Les estacions disponibles són els punts grocs i vermells al mapa.

Posi el ratolí al punt desitjat per veure el nom de l'estació.

Feu clic per veure les observacions i els pronòstics meteorològics.

Per canviar el mapa: feu clic els botons verds amb una creu de color negre per apropar; al botó verd amb un guió per allunyar la imatge; o en les fletxes verdes per a mapes adjacents.


METAR-TAF: